Boston, Massachusetts
Traffic Map
Current Weather Conditions
Boston, Massachusetts
Broken Clouds
Broken Clouds

Feels Like: 5°
Wind Chill: Ceiling: 12000
Heat Index: Visibility: 10mi
Dew Point: -3° Wind: 12mph
Humidity: 46% Direction: 230° (SW)
Pressure: 30.13in Gusts: 0mph
Raw Report DataKBOS 231354Z COR 23010KT 10SM BKN120 08/M03 A3013 RMK AO2 SLP203 T00831028
Traffic Incident Summary
Active as of:
Severity:
Category:
InformationThere was an issue retrieving the traffic information for this location. Please try a different location or try again shortly.
Advertisements
Track Severe Weather on mobile